createdAt,value
2019-05-10T00:01:54.818Z,37.23
2019-05-10T00:04:42.280Z,29.80
2019-05-10T00:07:30.640Z,33.05
2019-05-10T00:10:00.385Z,31.30
2019-05-10T00:12:31.341Z,28.25
2019-05-10T00:15:00.836Z,41.98
2019-05-10T00:17:30.233Z,26.77
2019-05-10T00:19:59.541Z,30.02
2019-05-10T00:22:28.845Z,32.03
2019-05-10T00:25:04.261Z,22.27
2019-05-10T00:27:29.216Z,24.60
2019-05-10T00:29:58.638Z,26.73
2019-05-10T00:32:28.044Z,26.37
2019-05-10T00:34:57.340Z,33.15
2019-05-10T00:37:26.663Z,28.10
2019-05-10T00:39:55.967Z,29.27
2019-05-10T00:42:25.294Z,32.70
2019-05-10T00:44:54.618Z,31.45
2019-05-10T00:47:23.915Z,35.45
2019-05-10T00:49:53.245Z,32.80
2019-05-10T00:52:23.534Z,16.37
2019-05-10T00:54:52.826Z,27.20
2019-05-10T00:57:22.133Z,27.60
2019-05-10T00:59:51.798Z,26.45
2019-05-10T01:02:21.104Z,35.17
2019-05-10T01:04:50.437Z,31.15
2019-05-10T01:07:19.721Z,29.12
2019-05-10T01:09:49.071Z,28.95
2019-05-10T01:12:19.330Z,25.15
2019-05-10T01:14:48.647Z,33.15
2019-05-10T01:17:17.964Z,24.67
2019-05-10T01:19:47.338Z,22.65
2019-05-10T01:22:16.658Z,23.85
2019-05-10T01:24:45.971Z,23.60
2019-05-10T01:27:15.320Z,23.27
2019-05-10T01:29:44.708Z,26.68
2019-05-10T01:32:14.218Z,22.05
2019-05-10T01:34:43.691Z,27.65
2019-05-10T01:37:14.165Z,20.17
2019-05-10T01:39:43.969Z,18.82
2019-05-10T01:42:13.768Z,25.90
2019-05-10T01:44:43.885Z,14.75
2019-05-10T01:47:13.817Z,21.37
2019-05-10T01:49:43.961Z,19.57
2019-05-10T01:52:13.864Z,26.25
2019-05-10T01:54:43.987Z,21.73
2019-05-10T01:57:13.911Z,30.88
2019-05-10T01:59:44.911Z,23.00
2019-05-10T02:02:14.219Z,28.43
2019-05-10T02:04:43.987Z,18.30
2019-05-10T02:07:14.748Z,21.90
2019-05-10T02:09:44.083Z,20.27
2019-05-10T02:12:14.123Z,23.77
2019-05-10T02:14:44.117Z,17.57
2019-05-10T02:17:14.161Z,21.42
2019-05-10T02:19:44.102Z,15.68
2019-05-10T02:22:14.131Z,16.05
2019-05-10T02:24:44.294Z,23.35
2019-05-10T02:27:14.192Z,16.85
2019-05-10T02:29:44.293Z,14.65
2019-05-10T02:32:14.305Z,16.30
2019-05-10T02:34:44.273Z,15.48
2019-05-10T02:37:14.397Z,15.32
2019-05-10T02:39:44.405Z,21.05
2019-05-10T02:42:14.489Z,17.27
2019-05-10T02:44:44.474Z,16.95
2019-05-10T02:47:14.527Z,14.18
2019-05-10T02:49:44.642Z,13.95
2019-05-10T02:52:14.944Z,21.95
2019-05-10T02:54:44.680Z,15.72
2019-05-10T02:57:15.574Z,18.02
2019-05-10T02:59:46.668Z,12.77
2019-05-10T03:02:17.496Z,14.23
2019-05-10T03:04:47.088Z,18.77
2019-05-10T03:07:18.151Z,28.60
2019-05-10T03:09:49.713Z,20.23
2019-05-10T03:12:24.370Z,23.07
2019-05-10T03:14:55.882Z,18.80
2019-05-10T03:17:26.533Z,21.68
2019-05-10T03:19:56.171Z,16.60
2019-05-10T03:22:26.074Z,29.00
2019-05-10T03:24:56.430Z,17.82
2019-05-10T03:27:25.762Z,22.15
2019-05-10T03:29:55.077Z,24.37
2019-05-10T03:32:24.398Z,17.70
2019-05-10T03:34:53.814Z,24.67
2019-05-10T03:37:23.200Z,28.20
2019-05-10T03:39:52.594Z,25.75
2019-05-10T03:42:21.930Z,27.17
2019-05-10T03:44:51.239Z,22.60
2019-05-10T03:47:20.541Z,28.42
2019-05-10T03:49:49.836Z,34.38
2019-05-10T03:52:19.160Z,33.90
2019-05-10T03:54:48.491Z,43.23
2019-05-10T03:57:17.794Z,47.67
2019-05-10T03:59:47.093Z,40.33
2019-05-10T04:02:16.397Z,43.80
2019-05-10T04:04:45.797Z,43.83
2019-05-10T04:07:16.611Z,52.30
2019-05-10T04:09:46.434Z,50.92
2019-05-10T04:12:15.815Z,53.38
2019-05-10T04:14:45.553Z,53.98
2019-05-10T04:17:15.836Z,51.47
2019-05-10T04:19:45.587Z,58.05
2019-05-10T04:22:15.885Z,56.17
2019-05-10T04:24:45.630Z,52.48
2019-05-10T04:27:30.787Z,62.45
2019-05-10T04:29:46.606Z,49.70
2019-05-10T04:32:15.915Z,55.23
2019-05-10T04:34:45.715Z,52.10
2019-05-10T04:37:15.721Z,62.40
2019-05-10T04:39:45.866Z,68.00
2019-05-10T04:42:15.756Z,55.00
2019-05-10T04:44:45.989Z,64.22
2019-05-10T04:47:15.821Z,56.65
2019-05-10T04:49:45.920Z,65.72
2019-05-10T04:52:15.850Z,62.83
2019-05-10T04:54:45.865Z,60.10
2019-05-10T04:57:16.586Z,53.73
2019-05-10T04:59:45.939Z,57.80
2019-05-10T05:02:15.983Z,66.28
2019-05-10T05:04:46.087Z,60.95
2019-05-10T05:07:15.981Z,71.42
2019-05-10T05:09:46.137Z,75.32
2019-05-10T05:12:16.022Z,70.87
2019-05-10T05:14:46.159Z,64.72
2019-05-10T05:17:16.181Z,76.60
2019-05-10T05:19:46.211Z,65.60
2019-05-10T05:22:16.143Z,63.63
2019-05-10T05:24:46.242Z,69.27
2019-05-10T05:27:16.198Z,76.33
2019-05-10T05:29:46.367Z,72.37
2019-05-10T05:32:16.215Z,88.20
2019-05-10T05:34:46.279Z,75.70
2019-05-10T05:37:16.307Z,77.30
2019-05-10T05:39:46.537Z,76.82
2019-05-10T05:42:16.558Z,68.25
2019-05-10T05:44:46.434Z,73.30
2019-05-10T05:47:16.667Z,79.27
2019-05-10T05:49:46.809Z,75.50
2019-05-10T05:52:17.404Z,71.25
2019-05-10T05:54:47.089Z,78.33
2019-05-10T05:57:17.327Z,79.82
2019-05-10T05:59:49.130Z,78.00
2019-05-10T06:02:18.616Z,64.20
2019-05-10T06:04:47.934Z,77.67
2019-05-10T06:07:17.918Z,68.50
2019-05-10T06:09:48.954Z,57.30
2019-05-10T06:12:18.251Z,59.83
2019-05-10T06:14:49.740Z,57.55
2019-05-10T06:17:23.698Z,79.67
2019-05-10T06:19:50.437Z,66.85
2019-05-10T06:22:19.760Z,56.83
2019-05-10T06:24:52.483Z,67.85
2019-05-10T06:27:20.107Z,65.37
2019-05-10T06:29:49.427Z,61.42
2019-05-10T06:32:19.528Z,61.45
2019-05-10T06:34:49.676Z,52.95
2019-05-10T06:37:19.920Z,58.68
2019-05-10T06:39:50.039Z,51.05
2019-05-10T06:42:20.321Z,46.88
2019-05-10T06:44:50.352Z,53.63
2019-05-10T06:47:21.989Z,49.15
2019-05-10T06:49:52.421Z,50.03
2019-05-10T06:52:27.363Z,52.67
2019-05-10T06:54:52.800Z,62.98
2019-05-10T06:57:22.149Z,58.30
2019-05-10T06:59:51.483Z,62.30
2019-05-10T07:02:26.151Z,62.50
2019-05-10T07:04:52.783Z,56.00
2019-05-10T07:07:42.633Z,57.25
2019-05-10T07:12:23.272Z,53.73
2019-05-10T07:14:52.705Z,59.98
2019-05-10T07:17:22.804Z,59.50
2019-05-10T07:19:55.365Z,71.30
2019-05-10T07:22:26.994Z,61.05
2019-05-10T07:24:57.220Z,77.78
2019-05-10T07:27:26.861Z,64.00
2019-05-10T07:29:56.198Z,68.67
2019-05-10T07:32:25.502Z,68.35
2019-05-10T07:35:00.505Z,51.63
2019-05-10T07:37:26.824Z,53.33
2019-05-10T07:39:58.052Z,48.80
2019-05-10T07:42:28.361Z,54.15
2019-05-10T07:44:57.699Z,50.40
2019-05-10T07:47:30.410Z,54.42
2019-05-10T07:50:03.943Z,45.35
2019-05-10T07:52:36.321Z,38.25
2019-05-10T07:55:04.465Z,36.23
2019-05-10T07:57:33.795Z,40.60
2019-05-10T08:00:06.091Z,48.38
2019-05-10T08:02:35.703Z,39.18
2019-05-10T08:05:10.770Z,34.98
2019-05-10T08:07:38.751Z,33.80
2019-05-10T08:10:08.901Z,33.53
2019-05-10T08:12:41.554Z,28.47
2019-05-10T08:15:09.844Z,29.80
2019-05-10T08:17:45.410Z,30.48
2019-05-10T08:20:25.031Z,29.55
2019-05-10T08:22:46.067Z,27.60
2019-05-10T08:25:15.376Z,24.47
2019-05-10T08:27:50.680Z,24.87
2019-05-10T08:30:33.585Z,25.40
2019-05-10T08:33:09.441Z,25.68
2019-05-10T08:38:04.641Z,19.63
2019-05-10T08:40:37.662Z,20.80
2019-05-10T08:43:08.965Z,22.95
2019-05-10T08:45:38.937Z,21.20
2019-05-10T08:50:50.658Z,16.77
2019-05-10T08:53:16.451Z,16.37
2019-05-10T08:55:43.383Z,14.43
2019-05-10T08:58:12.944Z,14.28
2019-05-10T09:00:54.293Z,17.60
2019-05-10T09:03:18.340Z,11.85
2019-05-10T09:05:44.899Z,12.15
2019-05-10T09:08:19.931Z,10.43
2019-05-10T09:13:13.809Z,8.28
2019-05-10T09:15:51.403Z,10.53
2019-05-10T09:18:14.242Z,7.37
2019-05-10T09:20:43.553Z,14.40
2019-05-10T09:23:18.675Z,10.30
2019-05-10T09:25:43.933Z,10.78
2019-05-10T09:28:16.697Z,9.23
2019-05-10T09:30:56.902Z,7.90
2019-05-10T09:33:15.400Z,9.23
2019-05-10T09:35:51.280Z,8.00
2019-05-10T09:38:15.790Z,10.13
2019-05-10T09:40:51.667Z,7.83
2019-05-10T09:43:16.188Z,9.67
2019-05-10T09:45:45.573Z,7.67
2019-05-10T09:48:14.881Z,9.05
2019-05-10T09:50:46.924Z,10.00
2019-05-10T09:53:21.755Z,12.43
2019-05-10T09:58:21.721Z,10.32
2019-05-10T10:00:48.524Z,9.80
2019-05-10T10:03:18.084Z,8.60
2019-05-10T10:05:48.256Z,10.60
2019-05-10T10:08:33.351Z,11.90
2019-05-10T10:56:59.323Z,22.73
2019-05-10T10:59:27.056Z,21.00
2019-05-10T11:02:25.212Z,18.62
2019-05-10T11:04:27.433Z,21.10
2019-05-10T11:07:09.800Z,23.00
2019-05-10T11:09:27.833Z,25.97
2019-05-10T11:11:57.156Z,23.67
2019-05-10T11:14:32.003Z,26.17
2019-05-10T11:19:27.606Z,20.95
2019-05-10T11:22:04.434Z,20.45
2019-05-10T11:24:30.384Z,17.55
2019-05-10T11:29:28.108Z,18.25
2019-05-10T11:32:12.153Z,13.75
2019-05-10T11:34:37.204Z,12.50
2019-05-10T11:37:00.000Z,18.27
2019-05-10T11:39:33.162Z,15.72
2019-05-10T11:42:05.210Z,19.17
2019-05-10T11:44:31.747Z,15.68
2019-05-10T11:47:01.598Z,12.88
2019-05-10T11:49:31.031Z,12.23
2019-05-10T11:52:01.687Z,10.55
2019-05-10T11:54:31.913Z,9.03
2019-05-10T11:57:06.671Z,14.68
2019-05-10T11:59:36.910Z,8.98
2019-05-10T12:04:39.221Z,10.00
2019-05-10T12:07:08.341Z,9.80
2019-05-10T12:09:35.761Z,10.80
2019-05-10T12:12:05.126Z,11.20
2019-05-10T12:14:34.471Z,6.87
2019-05-10T12:17:06.479Z,6.70
2019-05-10T12:22:05.826Z,10.65
2019-05-10T12:26:50.371Z,9.83
2019-05-10T12:26:59.105Z,7.50
2019-05-10T12:29:36.333Z,8.43
2019-05-10T12:32:05.896Z,6.65
2019-05-10T12:34:35.264Z,7.78
2019-05-10T12:37:08.234Z,7.40
2019-05-10T12:39:35.556Z,8.23
2019-05-10T12:42:04.925Z,4.65
2019-05-10T12:44:38.826Z,5.53
2019-05-10T12:47:05.296Z,4.62
2019-05-10T12:49:36.422Z,3.72
2019-05-10T12:54:35.805Z,6.03
2019-05-10T12:57:05.175Z,3.90
2019-05-10T12:59:34.871Z,4.58
2019-05-10T13:02:11.095Z,4.87
2019-05-10T13:04:40.596Z,5.87
2019-05-10T13:09:40.653Z,4.50
2019-05-10T13:12:07.949Z,8.58
2019-05-10T13:14:40.103Z,4.75
2019-05-10T13:19:38.387Z,4.40
2019-05-10T13:22:07.696Z,4.80
2019-05-10T13:24:37.094Z,4.87
2019-05-10T13:27:06.390Z,5.47
2019-05-10T13:29:40.668Z,5.75
2019-05-10T13:32:06.881Z,3.62
2019-05-10T13:34:36.201Z,5.12
2019-05-10T13:37:05.515Z,7.83
2019-05-10T13:39:34.831Z,6.35
2019-05-10T13:42:05.146Z,5.40
2019-05-10T13:44:37.172Z,5.05
2019-05-10T13:47:06.679Z,5.28
2019-05-10T13:49:36.006Z,6.35
2019-05-10T13:52:05.441Z,8.15
2019-05-10T13:54:36.047Z,6.12
2019-05-10T13:57:05.783Z,5.53
2019-05-10T13:59:35.521Z,4.65
2019-05-10T14:02:04.903Z,6.90
2019-05-10T14:04:38.755Z,10.08
2019-05-10T14:09:34.794Z,11.75
2019-05-10T14:12:04.183Z,10.23
2019-05-10T14:14:33.510Z,10.47
2019-05-10T14:17:02.853Z,7.12
2019-05-10T14:19:35.665Z,7.53
2019-05-10T14:24:31.690Z,6.47
2019-05-10T14:27:01.007Z,5.58
2019-05-10T14:29:34.235Z,4.25
2019-05-10T14:32:01.339Z,5.90
2019-05-10T14:34:30.644Z,5.75
2019-05-10T14:37:00.302Z,4.33
2019-05-10T14:39:30.459Z,5.05
2019-05-10T14:41:59.779Z,6.35
2019-05-10T14:44:29.067Z,6.95
2019-05-10T14:46:58.379Z,5.20
2019-05-10T14:49:27.659Z,5.67
2019-05-10T14:51:59.339Z,4.97
2019-05-10T14:54:41.517Z,7.47
2019-05-10T14:57:02.129Z,6.83
2019-05-10T14:59:32.384Z,8.78
2019-05-10T15:02:01.731Z,9.30
2019-05-10T15:04:47.054Z,6.28
2019-05-10T15:07:02.037Z,6.28
2019-05-10T15:09:31.387Z,6.22
2019-05-10T15:12:00.662Z,8.50
2019-05-10T15:14:29.970Z,5.58
2019-05-10T15:16:59.339Z,7.08
2019-05-10T15:19:30.966Z,10.43
2019-05-10T15:21:59.767Z,8.68
2019-05-10T15:24:29.060Z,7.37
2019-05-10T15:26:58.392Z,8.14
2019-05-10T15:29:27.709Z,11.60
2019-05-10T15:31:57.038Z,9.18
2019-05-10T15:34:27.412Z,10.70
2019-05-10T15:36:56.720Z,13.05
2019-05-10T15:39:28.763Z,10.50
2019-05-10T15:41:59.191Z,13.55
2019-05-10T15:44:31.156Z,8.85
2019-05-10T15:46:59.074Z,11.63
2019-05-10T15:49:28.395Z,9.25
2019-05-10T15:54:28.711Z,11.93
2019-05-10T15:56:58.086Z,12.43
2019-05-10T15:59:23.800Z,9.33
2019-05-10T15:59:27.423Z,12.00
2019-05-10T16:01:56.724Z,12.98
2019-05-10T16:04:26.863Z,13.05
2019-05-10T16:06:56.472Z,11.32
2019-05-10T16:09:26.579Z,15.93
2019-05-10T16:12:03.312Z,18.45
2019-05-10T16:14:32.918Z,23.65
2019-05-10T16:16:59.835Z,18.67
2019-05-10T16:19:29.140Z,21.48
2019-05-10T16:21:58.444Z,29.48
2019-05-10T16:24:28.148Z,34.15
2019-05-10T16:27:00.076Z,29.42
2019-05-10T16:29:33.875Z,32.33
2019-05-10T16:31:59.780Z,32.73
2019-05-10T16:34:32.391Z,31.07
2019-05-10T16:37:00.101Z,32.10
2019-05-10T16:39:29.405Z,41.88
2019-05-10T16:41:58.723Z,31.93
2019-05-10T16:44:28.815Z,32.90
2019-05-10T16:46:59.056Z,27.45
2019-05-10T16:49:29.023Z,27.10
2019-05-10T16:51:59.232Z,32.60
2019-05-10T16:54:29.650Z,32.75
2019-05-10T16:57:01.161Z,27.93
2019-05-10T16:59:31.455Z,25.80
2019-05-10T17:02:04.631Z,27.50
2019-05-10T17:04:37.317Z,28.42
2019-05-10T17:07:02.993Z,31.75
2019-05-10T17:09:32.647Z,25.05
2019-05-10T17:12:02.914Z,28.92
2019-05-10T17:14:35.764Z,24.10
2019-05-10T17:17:05.068Z,21.95
2019-05-10T17:19:36.069Z,26.40
2019-05-10T17:22:05.458Z,24.72
2019-05-10T17:24:35.733Z,26.23
2019-05-10T17:27:06.163Z,25.08
2019-05-10T17:29:35.489Z,26.27
2019-05-10T17:32:05.859Z,21.63
2019-05-10T17:34:35.192Z,21.70
2019-05-10T17:37:05.100Z,26.77
2019-05-10T17:39:34.595Z,27.67
2019-05-10T17:42:05.031Z,31.25
2019-05-10T17:44:34.412Z,34.70
2019-05-10T17:47:03.736Z,31.27
2019-05-10T17:49:33.056Z,30.43
2019-05-10T17:52:03.029Z,35.80
2019-05-10T17:54:33.833Z,30.74
2019-05-10T17:57:04.147Z,40.85
2019-05-10T17:59:33.499Z,32.05
2019-05-10T18:02:03.567Z,36.78
2019-05-10T18:04:33.849Z,29.45
2019-05-10T18:07:03.845Z,38.20
2019-05-10T18:09:34.378Z,41.92
2019-05-10T18:12:05.008Z,41.02
2019-05-10T18:14:34.600Z,41.53
2019-05-10T18:17:07.182Z,37.93
2019-05-10T18:19:36.088Z,35.78
2019-05-10T18:22:06.607Z,59.77
2019-05-10T18:27:06.530Z,49.95
2019-05-10T18:29:35.815Z,70.10
2019-05-10T18:32:05.632Z,79.44
2019-05-10T18:34:35.660Z,71.28
2019-05-10T18:37:05.732Z,72.20
2019-05-10T18:39:35.951Z,84.07
2019-05-10T18:42:06.119Z,90.72
2019-05-10T18:44:36.375Z,71.70
2019-05-10T18:47:06.701Z,86.05
2019-05-10T18:49:37.991Z,75.32
2019-05-10T18:52:07.435Z,74.42
2019-05-10T18:54:38.413Z,72.15
2019-05-10T18:57:12.194Z,82.88
2019-05-10T18:59:39.857Z,81.10
2019-05-10T19:02:11.866Z,74.32
2019-05-10T19:04:45.688Z,81.42
2019-05-10T19:07:12.235Z,81.80
2019-05-10T19:09:41.756Z,88.75
2019-05-10T19:12:17.997Z,104.75
2019-05-10T19:14:42.187Z,122.78
2019-05-10T19:17:11.588Z,98.22
2019-05-10T19:19:42.340Z,88.47
2019-05-10T19:22:11.928Z,92.50
2019-05-10T19:24:41.356Z,99.95
2019-05-10T19:27:11.391Z,116.40
2019-05-10T19:29:45.929Z,101.77
2019-05-10T19:32:17.861Z,87.05
2019-05-10T19:37:11.269Z,105.92
2019-05-10T19:39:40.586Z,122.45
2019-05-10T19:42:09.894Z,119.82
2019-05-10T19:44:40.359Z,100.10
2019-05-10T19:47:17.558Z,166.12
2019-05-10T19:49:45.742Z,165.50
2019-05-10T19:52:13.403Z,177.38
2019-05-10T19:54:42.891Z,161.85
2019-05-10T19:57:16.412Z,179.17
2019-05-10T19:59:48.915Z,173.15
2019-05-10T20:02:15.257Z,170.40
2019-05-10T20:04:44.645Z,152.95
2019-05-10T20:07:13.980Z,168.57
2019-05-10T20:09:43.332Z,183.18
2019-05-10T20:12:12.635Z,175.45
2019-05-10T20:14:41.967Z,183.55
2019-05-10T20:17:12.034Z,174.97
2019-05-10T20:19:42.006Z,194.00
2019-05-10T20:22:12.232Z,204.05
2019-05-10T20:24:42.314Z,195.55
2019-05-10T20:27:12.542Z,223.45
2019-05-10T20:29:42.611Z,190.07
2019-05-10T20:32:12.834Z,243.15
2019-05-10T20:34:42.932Z,247.90
2019-05-10T20:37:13.083Z,204.82
2019-05-10T20:39:45.166Z,204.65
2019-05-10T20:42:14.482Z,221.60
2019-05-10T20:44:43.784Z,213.80
2019-05-10T20:47:13.776Z,208.96
2019-05-10T20:49:43.842Z,196.53
2019-05-10T20:52:14.129Z,207.22
2019-05-10T20:54:44.140Z,210.97
2019-05-10T20:57:14.373Z,184.78
2019-05-10T20:59:44.468Z,219.40
2019-05-10T21:02:14.693Z,217.57
2019-05-10T21:04:44.770Z,205.45
2019-05-10T21:07:14.994Z,201.32
2019-05-10T21:09:45.072Z,199.72
2019-05-10T21:12:15.315Z,173.80
2019-05-10T21:14:45.371Z,184.40
2019-05-10T21:17:15.643Z,152.50
2019-05-10T21:19:45.715Z,149.07
2019-05-10T21:22:15.963Z,180.63
2019-05-10T21:24:46.015Z,155.27
2019-05-10T21:27:16.247Z,153.62
2019-05-10T21:29:46.349Z,165.47
2019-05-10T21:32:16.592Z,206.20
2019-05-10T21:34:46.655Z,171.82
2019-05-10T21:37:17.147Z,196.07
2019-05-10T21:39:46.989Z,194.02
2019-05-10T21:42:17.231Z,207.03
2019-05-10T21:44:47.237Z,180.87
2019-05-10T21:47:17.443Z,181.34
2019-05-10T21:49:47.753Z,170.70
2019-05-10T21:52:17.774Z,206.00
2019-05-10T21:54:47.932Z,226.95
2019-05-10T21:57:18.186Z,210.45
2019-05-10T21:59:48.230Z,187.65
2019-05-10T22:02:21.940Z,193.45
2019-05-10T22:04:51.347Z,211.35
2019-05-10T22:07:20.667Z,232.32
2019-05-10T22:09:49.962Z,232.98
2019-05-10T22:12:19.287Z,222.02
2019-05-10T22:14:49.216Z,184.57
2019-05-10T22:17:19.359Z,181.18
2019-05-10T22:19:49.590Z,193.85
2019-05-10T22:22:19.634Z,174.97
2019-05-10T22:24:49.855Z,187.72
2019-05-10T22:27:20.128Z,258.80
2019-05-10T22:29:50.131Z,237.17
2019-05-10T22:32:20.257Z,225.08
2019-05-10T22:34:50.399Z,241.68
2019-05-10T22:37:20.628Z,249.60
2019-05-10T22:39:50.735Z,210.35
2019-05-10T22:42:20.954Z,184.00
2019-05-10T22:44:50.998Z,103.92
2019-05-10T22:47:25.097Z,152.68
2019-05-10T22:49:52.544Z,193.97
2019-05-10T22:52:21.838Z,167.50
2019-05-10T22:54:51.634Z,204.68
2019-05-10T22:57:21.902Z,224.00
2019-05-10T22:59:51.942Z,175.78
2019-05-10T23:02:22.128Z,163.32
2019-05-10T23:04:52.259Z,156.97
2019-05-10T23:07:22.505Z,152.60
2019-05-10T23:09:52.571Z,159.30
2019-05-10T23:12:22.790Z,150.50
2019-05-10T23:14:52.911Z,141.65
2019-05-10T23:17:23.172Z,145.10
2019-05-10T23:19:54.142Z,138.05
2019-05-10T23:22:23.442Z,142.53
2019-05-10T23:24:53.528Z,198.05
2019-05-10T23:27:23.764Z,141.95
2019-05-10T23:29:53.844Z,93.27
2019-05-10T23:32:24.067Z,157.18
2019-05-10T23:34:54.175Z,213.97
2019-05-10T23:37:24.401Z,184.85
2019-05-10T23:39:54.516Z,199.97
2019-05-10T23:42:24.745Z,202.65
2019-05-10T23:44:54.820Z,189.62
2019-05-10T23:47:25.080Z,211.70
2019-05-10T23:49:55.096Z,199.90
2019-05-10T23:52:25.344Z,229.00
2019-05-10T23:54:55.377Z,243.30
2019-05-10T23:57:26.081Z,230.55
2019-05-10T23:59:55.961Z,264.50
